Time;durP1;ratioP1;P1;durP2;ratioP2;P2;SDS_P1;SDS_P2;PMS_P1;PMS_P2;Temp;Humidity;BMP_temperature;BMP_pressure;BME280_temperature;BME280_humidity;BME280_pressure;Samples;Min_cycle;Max_cycle;Signal;HPM_P1;HPM_P2
2022/08/27 00:00:08;;;;;;;9.23;4.80;;;14.50;1.00;;;;;;4999423;28;20076;-89
2022/08/27 00:02:34;;;;;;;11.25;4.68;;;14.30;1.00;;;;;;5010641;28;20052;-88
2022/08/27 00:05:02;;;;;;;8.65;4.60;;;14.40;1.00;;;;;;4993877;28;20040;-88
2022/08/27 00:07:28;;;;;;;11.15;5.30;;;14.40;1.00;;;;;;5027451;28;20080;-89
2022/08/27 00:09:54;;;;;;;9.65;4.75;;;;;;;;;;5010308;28;20069;-88
2022/08/27 00:12:19;;;;;;;9.32;4.90;;;14.30;1.00;;;;;;5009872;28;20049;-86
2022/08/27 00:14:46;;;;;;;11.15;5.28;;;;;;;;;;4994331;28;20095;-88
2022/08/27 00:17:12;;;;;;;9.70;4.28;;;;;;;;;;5009471;28;20042;-88
2022/08/27 00:19:38;;;;;;;7.38;4.47;;;14.40;1.00;;;;;;4991979;28;20041;-87
2022/08/27 00:22:05;;;;;;;7.78;4.25;;;14.40;1.00;;;;;;5009648;28;20156;-89
2022/08/27 00:24:31;;;;;;;8.90;4.50;;;14.50;1.00;;;;;;5026045;28;20049;-89
2022/08/27 00:26:57;;;;;;;11.80;4.55;;;;;;;;;;4991910;28;20095;-86
2022/08/27 00:29:25;;;;;;;6.72;3.95;;;;;;;;;;5025698;28;20037;-87
2022/08/27 00:31:52;;;;;;;9.93;4.45;;;14.90;1.00;;;;;;5006131;28;20030;-88
2022/08/27 00:34:18;;;;;;;8.10;4.45;;;;;;;;;;5008431;28;20045;-89
2022/08/27 00:36:44;;;;;;;6.82;3.75;;;;;;;;;;5006838;28;20046;-89
2022/08/27 00:39:11;;;;;;;8.70;4.20;;;14.90;1.00;;;;;;5007066;28;20037;-87
2022/08/27 00:41:42;;;;;;;8.68;4.13;;;15.00;1.00;;;;;;4991026;28;20523;-88
2022/08/27 00:44:08;;;;;;;6.82;3.83;;;;;;;;;;5007569;28;20116;-88
2022/08/27 00:46:44;;;;;;;7.30;3.45;;;;;;;;;;4991060;28;20045;-89
2022/08/27 00:49:10;;;;;;;8.70;3.67;;;;;;;;;;5007552;28;20041;-88
2022/08/27 00:51:37;;;;;;;8.38;3.50;;;14.20;1.00;;;;;;5007002;28;20043;-89
2022/08/27 00:54:04;;;;;;;8.32;3.85;;;15.30;1.00;;;;;;5006943;28;20067;-88
2022/08/27 00:56:38;;;;;;;10.32;3.63;;;;;;;;;;4989637;28;20037;-89
2022/08/27 00:59:04;;;;;;;7.50;3.33;;;;;;;;;;5024413;28;20041;-89
2022/08/27 01:02:17;;;;;;;8.15;3.92;;;;;;;;;;5008370;28;20156;-89
2022/08/27 01:04:20;;;;;;;6.82;3.10;;;;;;;;;;5024824;28;20041;-86
2022/08/27 01:06:46;;;;;;;6.97;3.42;;;;;;;;;;5006071;28;20071;-87
2022/08/27 01:09:16;;;;;;;7.63;3.88;;;;;;;;;;5006045;28;20567;-89
2022/08/27 01:11:43;;;;;;;12.13;4.45;;;15.30;1.00;;;;;;5020146;28;20057;-88
2022/08/27 01:14:15;;;;;;;8.60;3.33;;;;;;;;;;5008824;28;20092;-86
2022/08/27 01:16:44;;;;;;;7.82;3.20;;;;;;;;;;5008403;28;20037;-88
2022/08/27 01:19:18;;;;;;;7.40;3.15;;;;;;;;;;5007468;28;20033;-88
2022/08/27 01:21:48;;;;;;;8.50;3.83;;;;;;;;;;4990984;28;20500;-89
2022/08/27 01:24:32;;;;;;;7.32;3.63;;;;;;;;;;5026287;28;20107;-88
2022/08/27 01:26:59;;;;;;;15.40;4.88;;;14.90;1.00;;;;;;4987242;28;20359;-88
2022/08/27 01:29:26;;;;;;;7.60;3.22;;;14.80;1.00;;;;;;5024263;28;20041;-88
2022/08/27 01:31:51;;;;;;;7.38;3.53;;;14.90;1.00;;;;;;4993145;28;20068;-88
2022/08/27 01:34:17;;;;;;;12.55;3.70;;;14.60;1.00;;;;;;4993518;28;20045;-88
2022/08/27 01:36:43;;;;;;;8.15;3.30;;;;;;;;;;5006759;28;20064;-90
2022/08/27 01:39:09;;;;;;;9.10;4.10;;;;;;;;;;5023132;28;20041;-88
2022/08/27 01:41:35;;;;;;;8.70;4.50;;;15.40;1.00;;;;;;4993565;28;20560;-89
2022/08/27 01:44:01;;;;;;;8.68;3.58;;;14.20;1.00;;;;;;5008991;28;20391;-88
2022/08/27 01:46:27;;;;;;;11.15;3.50;;;;;;;;;;4991190;28;20472;-88
2022/08/27 01:48:54;;;;;;;9.30;3.92;;;15.00;1.00;;;;;;5001435;28;20059;-88
2022/08/27 01:51:20;;;;;;;7.40;3.20;;;14.90;1.00;;;;;;5007663;28;20494;-86
2022/08/27 01:53:46;;;;;;;7.18;3.10;;;14.90;1.00;;;;;;5007050;28;20049;-89
2022/08/27 01:56:12;;;;;;;9.75;3.60;;;;;;;;;;5007778;28;20080;-89
2022/08/27 01:58:38;;;;;;;7.93;3.40;;;15.20;1.00;;;;;;5007697;28;20126;-89
2022/08/27 02:01:10;;;;;;;7.72;3.25;;;16.00;1.00;;;;;;4992147;28;20043;-89
2022/08/27 02:03:36;;;;;;;6.90;3.42;;;15.30;1.00;;;;;;4992195;28;20537;-89
2022/08/27 02:06:05;;;;;;;7.57;3.45;;;15.00;1.00;;;;;;5008273;28;20037;-89
2022/08/27 02:08:31;;;;;;;7.28;3.38;;;15.50;1.00;;;;;;4990593;28;20052;-89
2022/08/27 02:10:57;;;;;;;8.35;3.33;;;15.20;1.00;;;;;;5007189;28;20038;-87
2022/08/27 02:13:26;;;;;;;7.40;3.10;;;;;;;;;;4991140;28;20471;-88
2022/08/27 02:15:52;;;;;;;7.15;3.30;;;15.30;1.00;;;;;;5008784;28;20865;-86
2022/08/27 02:18:18;;;;;;;7.45;2.80;;;15.50;1.00;;;;;;4991585;28;20218;-88
2022/08/27 02:20:45;;;;;;;7.32;3.22;;;15.20;1.00;;;;;;5025587;28;20504;-89
2022/08/27 02:23:15;;;;;;;9.00;3.35;;;15.80;1.00;;;;;;5007679;28;20128;-86
2022/08/27 02:25:41;;;;;;;8.35;3.70;;;15.50;1.00;;;;;;4991072;28;20076;-88
2022/08/27 02:28:07;;;;;;;8.10;2.70;;;15.40;1.00;;;;;;5006731;28;20037;-87
2022/08/27 02:30:34;;;;;;;6.93;3.10;;;15.80;1.00;;;;;;4990529;28;20045;-88
2022/08/27 02:33:01;;;;;;;9.40;3.22;;;;;;;;;;4990371;28;20049;-89
2022/08/27 02:35:28;;;;;;;6.50;2.50;;;;;;;;;;5006557;28;20037;-89
2022/08/27 02:37:54;;;;;;;9.25;2.97;;;15.20;1.00;;;;;;5005619;28;20100;-89
2022/08/27 02:40:23;;;;;;;12.57;3.28;;;;;;;;;;5006086;28;20121;-87
2022/08/27 02:42:52;;;;;;;7.20;2.72;;;;;;;;;;4989754;28;20043;-89
2022/08/27 02:45:19;;;;;;;6.95;2.67;;;16.10;1.00;;;;;;5022755;28;20045;-89
2022/08/27 02:47:45;;;;;;;5.80;2.58;;;15.60;1.00;;;;;;5004549;28;20111;-87
2022/08/27 02:50:13;;;;;;;6.85;2.65;;;16.70;1.00;;;;;;5005485;28;20049;-88
2022/08/27 02:52:39;;;;;;;8.32;3.25;;;;;;;;;;5022289;28;20072;-88
2022/08/27 02:55:05;;;;;;;10.00;2.95;;;16.50;1.00;;;;;;5008357;28;20029;-90
2022/08/27 02:57:32;;;;;;;8.20;2.60;;;15.40;1.00;;;;;;4991660;28;20533;-89
2022/08/27 02:59:58;;;;;;;7.65;2.75;;;15.80;1.00;;;;;;5009110;28;20413;-87
2022/08/27 03:02:24;;;;;;;8.43;2.20;;;;;;;;;;5035717;22;20045;-55
2022/08/27 03:04:50;;;;;;;6.35;2.30;;;;;;;;;;5017427;28;20069;-58
2022/08/27 03:07:16;;;;;;;5.85;2.50;;;;;;;;;;5019341;28;20038;-58
2022/08/27 03:09:42;;;;;;;7.85;2.45;;;;;;;;;;5013044;28;20034;-56
2022/08/27 03:12:08;;;;;;;7.03;2.33;;;;;;;;;;5013228;28;20502;-58
2022/08/27 03:14:34;;;;;;;5.47;1.85;;;;;;;;;;4995127;28;20125;-55
2022/08/27 03:18:17;;;;;;;5.30;1.73;;;;;;;;;;5012690;28;20227;-54
2022/08/27 03:19:47;;;;;;;6.93;2.40;;;;;;;;;;4994360;28;20052;-54
2022/08/27 03:22:13;;;;;;;6.25;2.15;;;;;;;;;;5012894;28;20120;-54
2022/08/27 03:24:39;;;;;;;7.13;1.90;;;;;;;;;;5022525;28;20049;-59
2022/08/27 03:27:06;;;;;;;5.93;1.80;;;15.60;1.00;;;;;;4996220;28;20040;-59
2022/08/27 03:29:33;;;;;;;8.20;3.00;;;15.80;1.00;;;;;;5011503;28;20034;-55
2022/08/27 03:31:59;;;;;;;6.18;2.00;;;;;;;;;;5012748;28;20088;-55
2022/08/27 03:34:26;;;;;;;6.80;2.17;;;;;;;;;;5012182;28;20041;-55
2022/08/27 03:36:52;;;;;;;6.72;2.20;;;;;;;;;;5011843;28;20048;-58
2022/08/27 03:39:21;;;;;;;6.40;1.90;;;;;;;;;;5020213;28;20030;-55
2022/08/27 03:41:46;;;;;;;6.43;1.85;;;15.70;1.00;;;;;;5019150;28;20046;-57
2022/08/27 03:44:12;;;;;;;9.27;2.47;;;;;;;;;;5021365;28;20113;-55
2022/08/27 03:46:38;;;;;;;6.72;1.80;;;;;;;;;;5011975;28;20108;-57
2022/08/27 03:49:04;;;;;;;5.18;1.70;;;;;;;;;;5012081;28;20034;-55
2022/08/27 03:51:30;;;;;;;6.18;2.85;;;;;;;;;;5012189;28;20038;-53
2022/08/27 03:53:56;;;;;;;6.18;2.10;;;15.50;1.00;;;;;;5012372;28;20038;-55
2022/08/27 03:56:22;;;;;;;7.47;2.13;;;15.50;1.00;;;;;;5012342;28;20033;-55
2022/08/27 03:58:48;;;;;;;5.72;2.10;;;;;;;;;;5011809;28;20124;-56
2022/08/27 04:01:15;;;;;;;6.18;2.10;;;;;;;;;;5012210;28;20034;-53
2022/08/27 04:03:41;;;;;;;6.57;2.38;;;;;;;;;;5011812;28;20050;-54
2022/08/27 04:06:08;;;;;;;4.90;1.90;;;;;;;;;;5011212;28;20041;-56
2022/08/27 04:08:34;;;;;;;6.95;2.35;;;;;;;;;;5011406;28;20327;-56
2022/08/27 04:11:04;;;;;;;6.72;2.33;;;;;;;;;;5011839;28;20057;-56
2022/08/27 04:13:30;;;;;;;4.82;2.00;;;;;;;;;;5002813;28;20041;-56
2022/08/27 04:15:56;;;;;;;5.88;1.98;;;;;;;;;;5016812;28;20056;-55
2022/08/27 04:18:22;;;;;;;8.35;2.67;;;;;;;;;;5019804;28;20065;-53
2022/08/27 04:20:51;;;;;;;10.07;2.22;;;16.10;1.00;;;;;;5014875;28;20098;-54
2022/08/27 04:23:17;;;;;;;6.78;2.40;;;;;;;;;;5016305;28;20049;-55
2022/08/27 04:25:44;;;;;;;5.47;2.10;;;;;;;;;;5022784;28;20048;-59
2022/08/27 04:28:10;;;;;;;7.43;2.33;;;;;;;;;;5011247;28;20135;-55
2022/08/27 04:30:41;;;;;;;10.43;2.28;;;15.60;1.00;;;;;;5010191;28;20049;-54
2022/08/27 04:33:07;;;;;;;7.57;2.50;;;;;;;;;;4994020;28;20484;-54
2022/08/27 04:35:34;;;;;;;6.30;2.20;;;;;;;;;;5010859;28;20034;-55
2022/08/27 04:38:00;;;;;;;7.55;2.28;;;;;;;;;;5011188;28;20108;-54
2022/08/27 04:41:18;;;;;;;7.97;2.20;;;;;;;;;;5011599;28;20042;-54
2022/08/27 04:43:14;;;;;;;9.07;2.40;;;;;;;;;;5008232;28;20446;-56
2022/08/27 04:45:43;;;;;;;6.32;2.42;;;;;;;;;;5007460;28;20271;-55
2022/08/27 04:48:10;;;;;;;8.88;2.53;;;;;;;;;;5013332;28;20038;-55
2022/08/27 04:50:41;;;;;;;9.63;2.40;;;;;;;;;;5009150;28;20133;-57
2022/08/27 04:53:07;;;;;;;6.43;2.67;;;;;;;;;;5009582;28;20092;-55
2022/08/27 04:55:33;;;;;;;5.25;2.30;;;;;;;;;;5013251;28;20052;-54
2022/08/27 04:58:02;;;;;;;8.38;2.55;;;;;;;;;;4993156;28;20029;-55
2022/08/27 05:00:28;;;;;;;5.85;2.30;;;16.20;1.00;;;;;;5009839;28;20443;-55
2022/08/27 05:02:54;;;;;;;5.65;2.25;;;;;;;;;;5010975;28;20045;-57
2022/08/27 05:05:20;;;;;;;5.85;2.03;;;;;;;;;;5010253;28;20466;-60
2022/08/27 05:07:46;;;;;;;7.03;2.05;;;;;;;;;;5011462;28;20091;-58
2022/08/27 05:10:12;;;;;;;6.97;2.67;;;;;;;;;;5010670;28;20438;-55
2022/08/27 05:12:38;;;;;;;7.45;2.53;;;;;;;;;;5000782;28;20057;-55
2022/08/27 05:15:04;;;;;;;5.57;2.50;;;;;;;;;;5011084;28;20036;-56
2022/08/27 05:17:32;;;;;;;6.07;2.10;;;;;;;;;;5018477;28;20410;-56
2022/08/27 05:19:58;;;;;;;7.63;2.20;;;16.60;1.00;;;;;;5008926;28;20069;-55
2022/08/27 05:22:24;;;;;;;12.00;2.65;;;16.70;1.00;;;;;;5010950;28;20531;-56
2022/08/27 05:24:49;;;;;;;11.45;2.40;;;16.70;1.00;;;;;;5021415;28;20029;-58
2022/08/27 05:27:16;;;;;;;8.70;2.92;;;;;;;;;;5008170;28;20042;-54
2022/08/27 05:29:42;;;;;;;7.13;2.17;;;;;;;;;;5008838;28;20049;-58
2022/08/27 05:32:08;;;;;;;5.65;1.88;;;;;;;;;;5009181;28;20384;-59
2022/08/27 05:34:34;;;;;;;7.75;2.70;;;;;;;;;;5011136;28;20046;-59
2022/08/27 05:37:00;;;;;;;7.53;2.13;;;16.80;1.00;;;;;;5009186;28;20038;-58
2022/08/27 05:39:25;;;;;;;5.45;1.83;;;17.00;1.00;;;;;;5009581;28;20416;-58
2022/08/27 05:41:56;;;;;;;6.38;2.10;;;17.20;1.00;;;;;;5011116;28;20486;-58
2022/08/27 05:44:22;;;;;;;8.98;1.95;;;;;;;;;;5011046;28;20084;-58
2022/08/27 05:46:48;;;;;;;9.20;2.53;;;;;;;;;;5010999;28;20715;-60
2022/08/27 05:49:13;;;;;;;8.50;2.38;;;16.90;1.00;;;;;;5008682;28;20044;-57
2022/08/27 05:51:40;;;;;;;6.00;2.00;;;17.10;1.00;;;;;;5009308;28;20462;-56
2022/08/27 05:54:13;;;;;;;7.78;2.00;;;;;;;;;;4991209;28;20453;-58
2022/08/27 05:56:40;;;;;;;8.38;2.20;;;17.20;1.00;;;;;;5009287;28;20442;-53
2022/08/27 06:01:52;;;;;;;;;;;17.60;1.00;;;;;;5006986;28;20049;-58
2022/08/27 06:04:19;;;;;;;8.77;2.05;;;;;;;;;;5015679;28;19923;-55
2022/08/27 06:06:46;;;;;;;8.18;2.53;;;;;;;;;;4991794;28;20116;-57
2022/08/27 06:09:15;;;;;;;5.22;1.77;;;17.80;1.00;;;;;;5013541;28;20088;-55
2022/08/27 06:11:41;;;;;;;11.15;2.78;;;;;;;;;;5009888;28;20084;-59
2022/08/27 06:14:08;;;;;;;8.40;2.63;;;;;;;;;;4989315;28;20069;-58
2022/08/27 06:16:34;;;;;;;7.13;2.20;;;;;;;;;;5007846;28;20073;-58
2022/08/27 06:18:59;;;;;;;7.32;2.50;;;17.50;1.00;;;;;;5007732;28;20220;-59
2022/08/27 06:21:26;;;;;;;8.65;2.40;;;;;;;;;;5007340;28;20038;-59
2022/08/27 06:23:53;;;;;;;6.60;2.03;;;;;;;;;;5008301;28;20063;-60
2022/08/27 06:26:20;;;;;;;9.57;1.90;;;;;;;;;;4990640;28;20045;-59
2022/08/27 06:28:46;;;;;;;6.70;2.03;;;17.80;1.00;;;;;;4991046;28;20038;-60
2022/08/27 06:31:18;;;;;;;7.78;2.30;;;;;;;;;;5014836;28;20034;-59
2022/08/27 06:33:45;;;;;;;9.90;2.28;;;;;;;;;;4978314;28;20046;-60
2022/08/27 06:36:12;;;;;;;6.22;1.92;;;;;;;;;;5014313;28;20049;-60
2022/08/27 06:38:38;;;;;;;10.73;2.70;;;;;;;;;;5013986;28;20068;-59
2022/08/27 06:41:05;;;;;;;7.50;2.00;;;;;;;;;;5010784;28;20061;-59
2022/08/27 06:43:31;;;;;;;7.85;1.90;;;;;;;;;;5014917;28;20092;-60
2022/08/27 06:46:01;;;;;;;7.43;1.80;;;;;;;;;;5010709;28;20411;-59
2022/08/27 06:48:27;;;;;;;17.50;2.35;;;;;;;;;;5013139;28;20468;-59
2022/08/27 06:50:54;;;;;;;13.55;2.72;;;;;;;;;;5012009;28;20042;-59
2022/08/27 06:53:20;;;;;;;8.00;1.98;;;18.10;1.00;;;;;;5011677;28;20080;-59
2022/08/27 06:55:47;;;;;;;10.48;1.98;;;;;;;;;;5014239;28;20085;-59
2022/08/27 06:58:17;;;;;;;10.55;2.58;;;17.60;1.00;;;;;;4992227;28;20037;-59
2022/08/27 07:00:43;;;;;;;5.20;2.30;;;;;;;;;;5010199;28;20346;-59
2022/08/27 07:03:10;;;;;;;6.93;2.10;;;;;;;;;;5007442;28;20084;-60
2022/08/27 07:05:37;;;;;;;7.60;1.70;;;;;;;;;;5009386;28;20092;-59
2022/08/27 07:08:03;;;;;;;7.70;1.73;;;;;;;;;;5009249;28;20064;-59
2022/08/27 07:10:29;;;;;;;5.95;1.52;;;19.20;1.00;;;;;;5010700;28;20518;-57
2022/08/27 07:12:55;;;;;;;5.80;1.50;;;19.40;1.00;;;;;;5010695;28;20416;-59
2022/08/27 07:15:21;;;;;;;6.35;1.50;;;19.60;1.00;;;;;;5013038;28;20064;-60
2022/08/27 07:17:47;;;;;;;7.72;2.00;;;;;;;;;;5008008;28;20037;-59
2022/08/27 07:20:14;;;;;;;8.75;2.13;;;;;;;;;;5009554;28;20061;-59
2022/08/27 07:22:41;;;;;;;8.27;1.77;;;19.90;99.90;;;;;;4992760;28;20061;-59
2022/08/27 07:25:13;;;;;;;8.10;1.95;;;19.50;99.90;;;;;;5010821;28;20411;-59
2022/08/27 07:27:42;;;;;;;8.93;2.35;;;;;;;;;;5010900;28;20041;-59
2022/08/27 07:30:14;;;;;;;6.70;2.08;;;;;;;;;;5008809;28;20124;-59
2022/08/27 07:32:43;;;;;;;8.68;2.03;;;;;;;;;;5011120;28;20049;-59
2022/08/27 07:35:10;;;;;;;8.48;1.40;;;;;;;;;;4987952;28;20038;-57
2022/08/27 07:37:36;;;;;;;6.80;1.60;;;;;;;;;;5008911;28;20054;-59
2022/08/27 07:40:07;;;;;;;6.65;1.52;;;;;;;;;;4989903;28;20311;-59
2022/08/27 07:45:23;;;;;;;6.38;1.60;;;;;;;;;;5010342;28;20042;-61
2022/08/27 07:47:50;;;;;;;8.27;1.73;;;20.00;99.90;;;;;;4992208;28;20038;-61
2022/08/27 07:50:15;;;;;;;5.70;1.30;;;20.20;99.90;;;;;;5009547;28;20077;-59
2022/08/27 07:52:42;;;;;;;8.18;1.60;;;20.10;99.90;;;;;;4992721;28;20435;-59
2022/08/27 07:55:13;;;;;;;7.50;1.40;;;;;;;;;;5010239;28;20470;-57
2022/08/27 07:57:40;;;;;;;5.38;1.50;;;;;;;;;;5009891;28;20065;-59
2022/08/27 08:00:11;;;;;;;6.63;1.48;;;;;;;;;;5010906;28;20092;-58
2022/08/27 08:02:40;;;;;;;7.70;1.70;;;;;;;;;;4992831;28;20053;-56
2022/08/27 08:05:07;;;;;;;6.68;1.60;;;19.50;99.90;;;;;;5010485;28;20041;-59
2022/08/27 08:07:37;;;;;;;5.47;1.80;;;;;;;;;;5009973;28;20049;-58
2022/08/27 08:10:07;;;;;;;8.48;1.90;;;;;;;;;;5009473;28;20053;-59
2022/08/27 08:12:51;;;;;;;5.75;1.70;;;19.80;99.90;;;;;;5010207;28;20466;-59
2022/08/27 08:15:18;;;;;;;6.70;1.48;;;19.10;99.90;;;;;;5008715;28;20160;-60
2022/08/27 08:17:44;;;;;;;7.07;1.60;;;20.00;99.90;;;;;;5009959;28;20034;-58
2022/08/27 08:20:18;;;;;;;7.68;1.85;;;19.90;99.90;;;;;;5022090;28;20029;-59
2022/08/27 08:22:44;;;;;;;8.07;1.60;;;19.80;99.90;;;;;;4994290;28;20117;-60
2022/08/27 08:25:10;;;;;;;6.03;1.70;;;20.00;99.90;;;;;;5019032;28;20149;-61
2022/08/27 08:27:36;;;;;;;8.43;1.60;;;20.10;99.90;;;;;;5010182;28;20128;-59
2022/08/27 08:30:01;;;;;;;9.23;1.85;;;19.90;99.90;;;;;;4998707;28;20037;-59
2022/08/27 08:32:27;;;;;;;7.95;1.60;;;20.40;99.90;;;;;;5013819;28;20034;-59
2022/08/27 08:34:52;;;;;;;8.27;1.95;;;20.70;99.90;;;;;;5008395;28;20128;-59
2022/08/27 08:37:18;;;;;;;8.20;2.00;;;;;;;;;;5012451;28;20038;-59
2022/08/27 08:39:44;;;;;;;6.18;2.00;;;20.40;99.90;;;;;;5014163;28;20072;-59
2022/08/27 08:42:28;;;;;;;5.53;1.67;;;20.30;99.90;;;;;;5011806;28;20053;-59
2022/08/27 08:44:56;;;;;;;5.60;1.52;;;;;;;;;;5007796;28;20068;-59
2022/08/27 08:47:32;;;;;;;7.90;1.88;;;;;;;;;;4996018;28;20054;-59
2022/08/27 08:50:10;;;;;;;5.68;1.75;;;20.50;99.90;;;;;;5007383;28;20122;-61
2022/08/27 08:53:03;;;;;;;6.20;1.40;;;20.30;99.90;;;;;;5021384;28;20384;-57
2022/08/27 08:55:50;;;;;;;9.73;1.63;;;20.60;99.90;;;;;;5014636;28;20052;-59
2022/08/27 08:58:38;;;;;;;6.90;1.40;;;;;;;;;;5011329;28;20038;-59
2022/08/27 09:01:06;;;;;;;7.47;1.70;;;;;;;;;;4993570;28;20070;-60
2022/08/27 09:14:11;;;;;;;6.65;1.33;;;20.30;99.90;;;;;;5032371;22;20073;-53
2022/08/27 09:16:37;;;;;;;8.05;1.42;;;19.90;99.90;;;;;;5021944;28;20329;-54
2022/08/27 09:19:07;;;;;;;4.68;1.60;;;22.20;99.90;;;;;;5009624;28;20033;-52
2022/08/27 09:21:40;;;;;;;4.32;1.20;;;21.10;99.90;;;;;;5016557;28;20069;-54
2022/08/27 09:24:44;;;;;;;6.70;1.73;;;20.20;99.90;;;;;;5017722;28;20038;-52
2022/08/27 09:27:13;;;;;;;6.18;1.48;;;21.20;99.90;;;;;;5019418;28;20113;-55
2022/08/27 09:29:50;;;;;;;8.00;1.65;;;21.40;99.90;;;;;;5011349;28;20077;-53
2022/08/27 09:32:26;;;;;;;5.93;1.50;;;21.40;99.90;;;;;;5018393;28;20038;-51
2022/08/27 09:34:56;;;;;;;6.97;1.42;;;21.00;99.90;;;;;;5019451;28;20084;-55
2022/08/27 09:37:27;;;;;;;5.65;1.65;;;20.70;99.90;;;;;;5018966;28;20040;-50
2022/08/27 09:40:08;;;;;;;4.85;1.60;;;22.40;99.90;;;;;;5005300;28;20495;-50
2022/08/27 09:42:52;;;;;;;4.53;1.10;;;21.40;99.90;;;;;;5005710;28;20414;-53
2022/08/27 09:45:28;;;;;;;8.05;1.58;;;21.80;99.90;;;;;;5022057;28;20159;-53
2022/08/27 09:48:13;;;;;;;6.28;1.25;;;21.50;99.90;;;;;;5013447;28;20037;-52
2022/08/27 09:50:53;;;;;;;5.03;1.20;;;21.80;99.90;;;;;;5021390;28;20387;-51
2022/08/27 09:53:26;;;;;;;7.00;1.70;;;21.00;99.90;;;;;;5001204;28;20435;-51
2022/08/27 09:56:03;;;;;;;5.10;1.20;;;21.90;99.90;;;;;;5003510;28;20042;-52
2022/08/27 09:58:46;;;;;;;6.55;1.30;;;23.20;99.90;;;;;;5011045;28;20276;-51
2022/08/27 10:01:20;;;;;;;5.32;1.25;;;22.10;99.90;;;;;;5019841;28;20029;-50
2022/08/27 10:03:46;;;;;;;;;;;21.30;99.90;;;;;;5026581;28;20495;-53
2022/08/27 10:06:12;;;;;;;7.65;1.45;;;22.00;99.90;;;;;;5015758;28;19917;-53
2022/08/27 10:09:11;;;;;;;5.63;1.55;;;21.80;99.90;;;;;;5031265;28;20110;-52
2022/08/27 10:11:50;;;;;;;5.30;1.10;;;22.20;99.90;;;;;;5014975;28;20104;-50
2022/08/27 10:14:31;;;;;;;7.57;1.20;;;22.50;99.90;;;;;;5027731;28;20041;-53
2022/08/27 10:17:20;;;;;;;5.15;1.45;;;22.90;99.90;;;;;;5021335;28;20099;-54
2022/08/27 10:20:02;;;;;;;8.02;1.60;;;22.80;99.90;;;;;;5012491;28;20060;-54
2022/08/27 10:22:43;;;;;;;5.97;1.30;;;22.70;99.90;;;;;;5005013;28;20045;-51
2022/08/27 10:25:42;;;;;;;6.00;1.50;;;22.50;99.90;;;;;;5028400;28;20084;-53
2022/08/27 10:28:43;;;;;;;5.20;1.60;;;22.40;99.90;;;;;;5014712;28;20034;-53
2022/08/27 10:31:34;;;;;;;7.05;1.50;;;22.70;99.90;;;;;;5018401;28;20045;-53
2022/08/27 10:34:22;;;;;;;8.52;1.42;;;22.70;99.90;;;;;;5026108;28;20033;-54
2022/08/27 10:37:21;;;;;;;7.35;1.63;;;22.50;99.90;;;;;;5023133;28;20048;-53
2022/08/27 10:39:58;;;;;;;6.70;1.30;;;22.50;99.90;;;;;;5025201;28;20453;-52
2022/08/27 10:42:46;;;;;;;7.88;1.70;;;22.80;99.90;;;;;;5018625;28;20408;-52
2022/08/27 10:45:46;;;;;;;6.25;1.58;;;22.80;99.90;;;;;;5020497;28;20096;-54
2022/08/27 10:48:29;;;;;;;4.88;1.10;;;22.80;99.90;;;;;;5018585;28;20506;-55
2022/08/27 10:51:04;;;;;;;6.20;1.40;;;22.70;99.90;;;;;;5022571;28;20057;-52
2022/08/27 10:53:54;;;;;;;6.05;1.33;;;24.30;99.90;;;;;;5027050;28;20039;-54
2022/08/27 10:56:49;;;;;;;7.22;1.45;;;22.90;99.90;;;;;;5021363;28;20044;-55
2022/08/27 10:59:55;;;;;;;6.82;1.40;;;22.90;99.90;;;;;;5017090;28;20038;-55
2022/08/27 11:02:33;;;;;;;9.00;1.55;;;23.00;99.90;;;;;;4981651;28;20066;-52
2022/08/27 11:05:05;;;;;;;7.10;1.38;;;23.20;99.90;;;;;;5014896;28;20125;-52
2022/08/27 11:07:39;;;;;;;7.82;1.70;;;23.40;99.90;;;;;;5024758;28;20042;-51
2022/08/27 11:10:23;;;;;;;5.25;1.25;;;23.00;99.90;;;;;;5025775;28;20034;-51
2022/08/27 11:12:54;;;;;;;9.52;2.08;;;23.00;99.90;;;;;;5016933;28;20037;-52
2022/08/27 11:15:26;;;;;;;9.95;1.90;;;23.10;99.90;;;;;;5012809;28;20041;-52
2022/08/27 11:18:10;;;;;;;7.70;1.58;;;23.40;99.90;;;;;;5022169;28;20527;-52
2022/08/27 11:21:06;;;;;;;5.03;1.30;;;23.00;99.90;;;;;;5023262;28;20083;-54
2022/08/27 11:23:38;;;;;;;5.68;1.50;;;23.20;99.90;;;;;;5012963;28;20042;-51
2022/08/27 11:26:06;;;;;;;6.32;1.23;;;23.00;99.90;;;;;;5023798;28;20034;-54
2022/08/27 11:28:40;;;;;;;4.45;1.33;;;23.20;99.90;;;;;;5005329;28;20506;-55
2022/08/27 11:31:25;;;;;;;4.07;1.20;;;22.90;99.90;;;;;;5023294;28;20048;-56
2022/08/27 11:34:17;;;;;;;5.65;1.45;;;23.20;99.90;;;;;;5021768;28;20092;-56
2022/08/27 11:37:04;;;;;;;4.72;1.20;;;23.50;99.90;;;;;;5018220;28;20042;-54
2022/08/27 11:39:52;;;;;;;6.00;1.40;;;23.60;99.90;;;;;;5009286;28;20457;-55
2022/08/27 11:42:34;;;;;;;6.13;1.20;;;24.00;99.90;;;;;;5008641;28;20034;-56
2022/08/27 11:45:15;;;;;;;6.70;1.88;;;24.90;99.90;;;;;;5013360;28;20042;-56
2022/08/27 11:48:14;;;;;;;6.10;1.30;;;23.40;99.90;;;;;;5016358;28;20151;-54
2022/08/27 11:50:51;;;;;;;4.20;1.20;;;23.50;99.90;;;;;;5007220;28;20057;-56
2022/08/27 11:53:32;;;;;;;5.75;1.10;;;23.50;99.90;;;;;;5029385;28;20505;-56
2022/08/27 11:56:09;;;;;;;4.45;1.20;;;23.70;99.90;;;;;;5022259;28;20129;-54
2022/08/27 11:58:52;;;;;;;4.60;1.38;;;23.70;99.90;;;;;;5021859;28;20499;-54
2022/08/27 12:01:30;;;;;;;5.75;1.20;;;24.60;99.90;;;;;;5021402;28;20038;-57
2022/08/27 12:04:24;;;;;;;5.85;1.30;;;23.60;99.90;;;;;;5024930;28;20060;-54
2022/08/27 12:07:00;;;;;;;5.78;1.45;;;24.30;99.90;;;;;;5014750;28;20143;-52
2022/08/27 12:09:26;;;;;;;8.43;1.77;;;25.30;99.90;;;;;;5028197;28;20042;-54
2022/08/27 12:12:13;;;;;;;6.05;1.30;;;24.30;99.90;;;;;;5023020;28;20164;-54
2022/08/27 12:14:46;;;;;;;6.32;1.45;;;23.90;99.90;;;;;;5022282;28;20049;-55
2022/08/27 12:17:24;;;;;;;5.55;1.33;;;26.30;99.90;;;;;;5024115;28;20045;-51
2022/08/27 12:20:11;;;;;;;5.18;1.55;;;26.90;99.90;;;;;;5005349;28;20045;-53
2022/08/27 12:23:38;;;;;;;6.60;1.50;;;26.80;99.90;;;;;;5020579;28;20120;-56
2022/08/27 12:25:26;;;;;;;4.15;1.10;;;26.80;99.90;;;;;;5011319;28;20121;-56
2022/08/27 12:28:04;;;;;;;5.82;1.42;;;29.30;99.90;;;;;;5021718;28;20029;-51
2022/08/27 12:30:40;;;;;;;6.55;1.60;;;27.90;99.90;;;;;;5025553;28;20109;-55
2022/08/27 12:33:33;;;;;;;5.22;1.75;;;27.50;99.90;;;;;;5018901;28;20037;-56
2022/08/27 12:36:08;;;;;;;7.95;2.10;;;29.40;99.90;;;;;;5021305;28;20033;-56
2022/08/27 12:38:34;;;;;;;7.25;2.20;;;29.30;99.90;;;;;;5007819;28;20049;-52
2022/08/27 12:41:07;;;;;;;5.68;2.20;;;29.10;99.90;;;;;;5023324;28;20507;-54
2022/08/27 12:43:37;;;;;;;7.00;1.73;;;29.30;99.90;;;;;;5025148;28;20120;-56
2022/08/27 12:46:18;;;;;;;6.90;2.20;;;29.60;99.90;;;;;;5017208;28;20029;-55
2022/08/27 12:48:56;;;;;;;6.85;2.25;;;27.60;99.90;;;;;;5020735;28;20551;-55
2022/08/27 12:51:38;;;;;;;5.45;1.92;;;27.60;99.90;;;;;;5019198;28;20567;-55
2022/08/27 12:54:54;;;;;;;8.80;3.47;;;27.40;99.90;;;;;;5020246;28;20088;-55
2022/08/27 12:57:30;;;;;;;7.57;2.10;;;27.20;99.90;;;;;;4949102;29;20039;-57
2022/08/27 13:00:14;;;;;;;8.73;2.70;;;28.20;99.90;;;;;;4923303;29;20158;-56
2022/08/27 13:03:11;;;;;;;5.30;1.95;;;28.50;99.90;;;;;;5002843;28;20038;-56
2022/08/27 13:05:41;;;;;;;7.25;2.40;;;27.80;99.90;;;;;;5023423;28;20561;-55
2022/08/27 13:08:21;;;;;;;6.00;2.30;;;27.80;99.90;;;;;;5016089;28;20318;-56
2022/08/27 13:10:48;;;;;;;5.75;2.25;;;28.10;99.90;;;;;;5007914;28;20110;-55
2022/08/27 13:13:19;;;;;;;7.25;2.03;;;28.40;99.90;;;;;;5019647;28;20034;-54
2022/08/27 13:16:03;;;;;;;5.83;1.70;;;27.80;99.90;;;;;;5025540;28;20057;-56
2022/08/27 13:18:30;;;;;;;8.13;2.20;;;27.50;99.90;;;;;;5019912;28;20048;-57
2022/08/27 13:21:07;;;;;;;6.75;2.03;;;29.00;99.90;;;;;;5018115;28;20037;-53
2022/08/27 13:23:36;;;;;;;6.53;2.40;;;31.10;99.90;;;;;;5009377;28;20492;-57
2022/08/27 13:26:11;;;;;;;10.35;2.15;;;30.80;99.90;;;;;;5005440;28;20054;-57
2022/08/27 13:28:40;;;;;;;5.57;1.77;;;29.80;99.90;;;;;;5012636;28;20530;-56
2022/08/27 13:31:27;;;;;;;7.72;2.17;;;29.60;99.90;;;;;;5008470;28;20041;-57
2022/08/27 13:33:57;;;;;;;6.03;1.70;;;28.70;99.90;;;;;;5010672;28;20045;-57
2022/08/27 13:36:47;;;;;;;6.90;2.20;;;31.40;99.90;;;;;;5023666;28;20068;-56
2022/08/27 13:39:12;;;;;;;5.72;1.88;;;31.50;99.90;;;;;;5007429;28;20049;-55
2022/08/27 13:41:41;;;;;;;6.03;1.67;;;31.80;99.90;;;;;;5026812;28;20029;-56
2022/08/27 13:44:18;;;;;;;5.95;1.90;;;33.50;99.90;;;;;;5011251;28;20095;-54
2022/08/27 13:47:20;;;;;;;6.45;1.90;;;35.40;99.90;;;;;;5025749;28;20047;-54
2022/08/27 13:50:01;;;;;;;7.43;2.20;;;34.70;99.90;;;;;;5015755;28;20057;-53
2022/08/27 13:52:35;;;;;;;7.25;2.17;;;32.90;99.90;;;;;;5019526;28;20045;-55
2022/08/27 13:55:14;;;;;;;6.20;1.83;;;32.10;99.90;;;;;;5013250;28;20407;-55
2022/08/27 13:57:49;;;;;;;8.73;2.30;;;31.40;99.90;;;;;;5025658;28;20092;-55
2022/08/27 14:00:19;;;;;;;6.38;2.17;;;31.20;99.90;;;;;;5016485;28;20029;-55
2022/08/27 14:02:46;;;;;;;6.53;2.00;;;31.40;99.90;;;;;;5017883;28;20133;-55
2022/08/27 14:05:26;;;;;;;5.35;1.63;;;30.50;99.90;;;;;;5020931;28;20083;-54
2022/08/27 14:08:18;;;;;;;5.47;1.98;;;31.70;99.90;;;;;;5013747;28;20037;-54
2022/08/27 14:11:03;;;;;;;6.57;2.30;;;30.70;99.90;;;;;;5022261;28;20148;-53